createdAt,value
2018-05-29T00:06:51.305Z,22.3
2018-05-29T00:17:05.434Z,22.1
2018-05-29T00:27:19.621Z,21.9
2018-05-29T00:38:05.076Z,21.7
2018-05-29T00:48:50.373Z,21.6
2018-05-29T00:59:06.818Z,21.6
2018-05-29T01:09:20.630Z,21.5
2018-05-29T01:19:32.909Z,21.3
2018-05-29T01:29:48.190Z,21.2
2018-05-29T01:40:00.388Z,21.1
2018-05-29T01:50:14.849Z,21.0
2018-05-29T02:00:31.849Z,20.8
2018-05-29T02:10:46.101Z,20.7
2018-05-29T02:20:59.467Z,20.6
2018-05-29T02:31:13.479Z,20.5
2018-05-29T02:41:59.276Z,20.2
2018-05-29T02:52:11.057Z,20.2
2018-05-29T03:02:56.656Z,20.0
2018-05-29T03:13:08.903Z,20.0
2018-05-29T03:23:54.467Z,19.8
2018-05-29T03:34:07.745Z,19.8
2018-05-29T03:44:22.121Z,19.7
2018-05-29T03:54:36.360Z,19.6
2018-05-29T04:05:01.925Z,19.5
2018-05-29T04:15:17.563Z,19.5
2018-05-29T04:25:32.659Z,19.5
2018-05-29T04:35:46.646Z,19.5
2018-05-29T04:45:59.077Z,19.5
2018-05-29T04:57:21.278Z,19.6
2018-05-29T05:07:36.167Z,19.6
2018-05-29T05:17:50.182Z,19.7
2018-05-29T05:28:35.609Z,19.9
2018-05-29T05:38:50.404Z,19.9
2018-05-29T05:49:03.158Z,20.1
2018-05-29T05:59:40.308Z,20.3
2018-05-29T06:09:52.015Z,20.5
2018-05-29T06:20:37.854Z,21.1
2018-05-29T06:31:23.327Z,21.5
2018-05-29T06:42:10.251Z,22.2
2018-05-29T06:52:24.581Z,22.2
2018-05-29T07:02:36.960Z,22.7
2018-05-29T07:12:54.094Z,23.4
2018-05-29T07:23:39.549Z,24.7
2018-05-29T07:33:50.841Z,24.7
2018-05-29T07:44:36.473Z,27.4
2018-05-29T07:54:51.088Z,27.4
2018-05-29T08:05:36.940Z,30.8
2018-05-29T08:15:52.480Z,30.8
2018-05-29T08:26:50.394Z,33.8
2018-05-29T08:37:05.125Z,33.8
2018-05-29T08:47:34.393Z,35.1
2018-05-29T08:58:19.740Z,37.4
2018-05-29T09:09:05.677Z,38.4
2018-05-29T09:19:53.169Z,39.3
2018-05-29T09:30:04.805Z,39.3
2018-05-29T09:40:51.214Z,40.8
2018-05-29T09:51:03.762Z,40.8
2018-05-29T10:01:49.393Z,42.0
2018-05-29T10:12:35.389Z,42.5
2018-05-29T10:23:20.754Z,42.8
2018-05-29T10:34:06.880Z,43.1
2018-05-29T10:44:22.139Z,43.1
2018-05-29T10:55:31.990Z,43.7
2018-05-29T11:06:30.456Z,43.7
2018-05-29T11:17:48.249Z,43.9
2018-05-29T11:28:27.520Z,43.9
2018-05-29T11:38:55.270Z,44.1
2018-05-29T11:59:57.386Z,43.7
2018-05-29T12:10:11.727Z,43.4
2018-05-29T12:20:25.811Z,43.3
2018-05-29T12:30:40.252Z,43.3
2018-05-29T12:41:29.344Z,43.3
2018-05-29T12:51:44.719Z,43.3
2018-05-29T13:02:02.765Z,43.4
2018-05-29T13:12:17.758Z,43.5
2018-05-29T13:23:03.248Z,43.7
2018-05-29T13:33:23.583Z,43.7
2018-05-29T13:44:13.706Z,43.6
2018-05-29T13:54:58.751Z,43.4
2018-05-29T14:05:47.796Z,43.2
2018-05-29T14:16:39.940Z,42.7
2018-05-29T14:33:17.063Z,42.2
2018-05-29T14:43:31.759Z,42.2
2018-05-29T14:54:23.502Z,40.4
2018-05-29T15:06:01.642Z,39.5
2018-05-29T15:16:16.179Z,39.5
2018-05-29T15:26:30.222Z,38.7
2018-05-29T15:36:42.511Z,37.9
2018-05-29T15:46:58.441Z,36.7
2018-05-29T15:57:12.946Z,35.3
2018-05-29T16:08:02.514Z,32.9
2018-05-29T16:18:48.244Z,32.0
2018-05-29T16:29:36.719Z,31.2
2018-05-29T16:40:44.796Z,30.6
2018-05-29T16:51:42.000Z,30.0
2018-05-29T17:01:59.310Z,30.0
2018-05-29T17:12:53.550Z,29.0
2018-05-29T17:23:09.501Z,29.0
2018-05-29T17:33:23.327Z,28.5
2018-05-29T17:43:39.836Z,28.0
2018-05-29T17:53:53.979Z,27.5
2018-05-29T18:04:09.529Z,27.1
2018-05-29T18:14:23.549Z,26.7
2018-05-29T18:24:37.914Z,26.3
2018-05-29T18:34:49.905Z,26.0
2018-05-29T18:45:41.902Z,25.3
2018-05-29T18:56:30.929Z,24.9
2018-05-29T19:08:14.454Z,24.6
2018-05-29T19:19:16.966Z,24.4
2018-05-29T19:30:05.210Z,24.1
2018-05-29T19:40:58.838Z,23.8
2018-05-29T19:53:32.160Z,23.6
2018-05-29T20:03:46.611Z,23.6
2018-05-29T20:15:32.792Z,23.1
2018-05-29T20:25:50.211Z,23.1
2018-05-29T20:37:21.513Z,22.9
2018-05-29T20:57:18.525Z,22.7
2018-05-29T21:08:02.145Z,22.6
2018-05-29T21:20:22.348Z,22.0
2018-05-29T21:32:06.953Z,22.0
2018-05-29T21:42:27.327Z,21.8
2018-05-29T21:53:00.657Z,21.5
2018-05-29T22:03:17.732Z,21.3
2018-05-29T22:14:03.736Z,21.0
2018-05-29T22:24:23.071Z,21.0
2018-05-29T22:34:37.137Z,20.9
2018-05-29T23:05:27.681Z,20.7
2018-05-29T23:15:47.560Z,20.6
2018-05-29T23:26:19.176Z,20.5
2018-05-29T23:36:33.114Z,20.5
2018-05-29T23:47:20.090Z,20.4
2018-05-29T23:57:53.299Z,20.3
